Time;durP1;ratioP1;P1;durP2;ratioP2;P2;SDS_P1;SDS_P2;PMS_P1;PMS_P2;Temp;Humidity;BMP_temperature;BMP_pressure;BME280_temperature;BME280_humidity;BME280_pressure;Samples;Min_cycle;Max_cycle;Signal;HPM_P1;HPM_P2
2021/03/14 00:00:44;;;;;;;7.65;3.00;;;;;;;7.21;55.53;97066.19;5113174;28;20034;-77
2021/03/14 00:03:12;;;;;;;7.30;2.92;;;;;;;7.14;55.28;97064.69;5094303;28;20015;-78
2021/03/14 00:05:39;;;;;;;8.70;3.33;;;;;;;7.11;54.80;97068.06;5115661;28;20063;-78
2021/03/14 00:08:06;;;;;;;6.00;2.50;;;;;;;7.06;54.98;97059.19;5114322;28;20023;-78
2021/03/14 00:10:32;;;;;;;8.15;2.38;;;;;;;7.04;55.21;97061.41;5113545;28;20107;-78
2021/03/14 00:12:57;;;;;;;5.22;2.15;;;;;;;7.00;55.13;97055.78;5114476;28;20050;-79
2021/03/14 00:15:23;;;;;;;5.07;2.15;;;;;;;6.97;55.16;97073.53;5114679;28;20403;-79
2021/03/14 00:17:49;;;;;;;5.53;2.17;;;;;;;6.94;55.63;97076.88;5115355;28;20020;-78
2021/03/14 00:20:15;;;;;;;7.85;2.88;;;;;;;6.91;55.76;97080.25;5121422;28;20172;-77
2021/03/14 00:22:40;;;;;;;5.10;2.17;;;;;;;6.89;55.80;97093.38;5118943;28;20446;-77
2021/03/14 00:25:08;;;;;;;4.13;1.83;;;;;;;6.88;55.51;97099.94;5119008;28;20091;-77
2021/03/14 00:27:34;;;;;;;7.47;2.58;;;;;;;6.87;55.64;97108.41;5120485;28;20051;-78
2021/03/14 00:30:00;;;;;;;4.13;1.92;;;;;;;6.87;55.96;97111.94;5120699;28;20464;-78
2021/03/14 00:32:25;;;;;;;6.13;2.60;;;;;;;6.82;56.07;97098.41;5118330;28;20498;-77
2021/03/14 00:34:51;;;;;;;12.93;7.78;;;;;;;6.78;55.63;97089.25;5116277;28;20028;-78
2021/03/14 00:37:16;;;;;;;28.67;17.20;;;;;;;6.74;56.38;97089.03;5118081;28;20450;-79
2021/03/14 00:39:42;;;;;;;9.07;3.58;;;;;;;6.73;56.06;97084.69;5118310;28;20031;-78
2021/03/14 00:42:07;;;;;;;7.68;4.22;;;;;;;6.70;55.51;97080.66;5119923;28;20099;-77
2021/03/14 00:44:33;;;;;;;13.82;10.00;;;;;;;6.70;55.13;97086.13;5118688;28;20072;-78
2021/03/14 00:46:58;;;;;;;42.72;22.58;;;;;;;6.68;55.17;97079.38;5122587;28;20027;-78
2021/03/14 00:49:24;;;;;;;12.40;6.60;;;;;;;6.66;55.19;97071.47;5119542;28;20073;-79
2021/03/14 00:51:51;;;;;;;18.30;12.25;;;;;;;6.63;54.73;97088.44;5092923;28;20028;-81
2021/03/14 00:54:16;;;;;;;10.25;6.95;;;;;;;6.55;54.44;97092.69;5098594;28;20034;-81
2021/03/14 00:56:42;;;;;;;17.00;10.20;;;;;;;6.46;54.47;97091.78;5078360;28;20027;-79
2021/03/14 00:59:08;;;;;;;22.80;16.63;;;;;;;6.39;54.46;97088.66;5079314;28;20659;-79
2021/03/14 01:01:34;;;;;;;8.25;5.30;;;;;;;6.35;54.72;97087.63;5083741;28;20036;-79
2021/03/14 01:03:59;;;;;;;9.70;5.22;;;;;;;6.36;54.53;97084.63;5085906;28;20019;-79
2021/03/14 01:06:25;;;;;;;7.18;2.38;;;;;;;6.35;54.54;97080.28;5088571;28;20032;-80
2021/03/14 01:08:50;;;;;;;4.95;2.40;;;;;;;6.32;54.13;97086.34;5086336;28;20788;-80
2021/03/14 01:11:16;;;;;;;5.75;1.60;;;;;;;6.28;54.33;97073.63;5086118;28;20439;-79
2021/03/14 01:13:42;;;;;;;4.85;1.60;;;;;;;6.24;54.61;97079.69;5088276;28;20024;-79
2021/03/14 01:16:07;;;;;;;3.80;1.77;;;;;;;6.21;54.44;97088.44;5085586;28;20028;-80
2021/03/14 01:18:33;;;;;;;10.02;3.22;;;;;;;6.17;54.73;97090.16;5072693;28;20034;-81
2021/03/14 01:20:59;;;;;;;6.47;1.83;;;;;;;6.15;54.87;97097.81;5083805;28;20953;-81
2021/03/14 01:23:24;;;;;;;5.93;1.98;;;;;;;6.13;55.15;97091.88;5092905;28;20084;-81
2021/03/14 01:25:49;;;;;;;4.70;2.15;;;;;;;6.06;54.54;97086.84;5088994;28;20040;-79
2021/03/14 01:28:15;;;;;;;4.57;1.85;;;;;;;6.03;55.19;97081.97;5087477;28;20028;-80
2021/03/14 01:30:40;;;;;;;6.30;2.33;;;;;;;5.97;54.80;97081.22;5090891;28;20487;-80
2021/03/14 01:33:06;;;;;;;5.53;2.40;;;;;;;5.96;54.69;97085.03;5094016;28;20039;-80
2021/03/14 01:35:31;;;;;;;4.93;2.40;;;;;;;5.93;55.16;97079.41;5087864;28;20433;-80
2021/03/14 01:37:57;;;;;;;4.63;1.95;;;;;;;5.91;54.78;97079.69;5081356;28;20807;-80
2021/03/14 01:40:23;;;;;;;5.28;2.03;;;;;;;5.90;55.25;97072.66;5072268;28;20059;-80
2021/03/14 01:42:49;;;;;;;4.60;2.03;;;;;;;5.90;55.28;97071.84;5086329;28;20107;-80
2021/03/14 01:45:16;;;;;;;4.65;2.35;;;;;;;5.90;55.08;97071.84;5090358;28;21014;-80
2021/03/14 01:47:44;;;;;;;5.15;2.00;;;;;;;5.89;55.33;97072.94;5091027;28;20019;-80
2021/03/14 01:50:12;;;;;;;4.55;2.03;;;;;;;5.88;55.98;97076.78;5092356;28;20028;-80
2021/03/14 01:52:38;;;;;;;3.95;1.80;;;;;;;5.87;55.61;97070.53;5089300;28;20074;-79
2021/03/14 01:55:06;;;;;;;4.07;1.83;;;;;;;5.87;56.15;97062.38;5088389;28;20047;-80
2021/03/14 01:57:31;;;;;;;4.47;2.08;;;;;;;5.86;55.72;97065.38;5085090;28;20114;-80
2021/03/14 01:59:58;;;;;;;4.72;2.30;;;;;;;5.85;56.11;97080.91;5075902;28;20027;-81
2021/03/14 02:02:24;;;;;;;5.20;2.00;;;;;;;5.82;56.20;97074.16;5078503;28;20044;-80
2021/03/14 02:04:51;;;;;;;3.47;1.85;;;;;;;5.82;55.48;97059.75;5085875;28;20583;-79
2021/03/14 02:07:16;;;;;;;5.03;1.98;;;;;;;5.82;55.68;97057.03;5085035;28;20024;-79
2021/03/14 02:09:42;;;;;;;6.45;2.25;;;;;;;5.84;55.50;97057.53;5088146;28;20472;-80
2021/03/14 02:12:11;;;;;;;3.13;1.40;;;;;;;5.80;56.35;97064.69;5087670;28;20112;-80
2021/03/14 02:14:39;;;;;;;6.80;2.40;;;;;;;5.77;55.41;97066.06;5090298;28;20106;-79
2021/03/14 02:17:08;;;;;;;6.57;2.42;;;;;;;5.76;55.70;97064.44;5085066;28;20020;-79
2021/03/14 02:19:36;;;;;;;5.30;2.25;;;;;;;5.75;55.94;97051.16;5078235;28;20038;-78
2021/03/14 02:22:02;;;;;;;5.05;2.17;;;;;;;5.75;55.50;97051.16;5077651;28;20032;-78
2021/03/14 02:24:43;;;;;;;4.57;1.85;;;;;;;5.74;56.05;97061.22;5080946;28;20016;-78
2021/03/14 02:27:09;;;;;;;5.45;2.00;;;;;;;5.76;56.05;97056.28;5085123;28;20032;-78
2021/03/14 02:29:36;;;;;;;4.28;1.70;;;;;;;5.72;55.59;97062.63;5083805;28;20115;-78
2021/03/14 02:32:05;;;;;;;4.97;2.22;;;;;;;5.69;56.74;97057.78;5101822;28;20057;-78
2021/03/14 02:34:43;;;;;;;4.57;1.80;;;;;;;5.64;56.69;97064.16;5083927;28;20369;-78
2021/03/14 02:37:10;;;;;;;3.53;1.73;;;;;;;5.59;57.22;97073.19;5089721;28;20020;-78
2021/03/14 02:39:37;;;;;;;4.68;1.77;;;;;;;5.61;57.52;97073.69;5086478;28;20012;-78
2021/03/14 02:42:05;;;;;;;4.45;2.17;;;;;;;5.60;57.73;97072.06;5078423;28;20024;-79
2021/03/14 02:44:35;;;;;;;3.92;2.17;;;;;;;5.59;57.54;97081.34;5078382;28;20023;-78
2021/03/14 02:47:04;;;;;;;;;;;;;;;5.57;57.02;97082.75;5090319;28;20028;-77
2021/03/14 02:49:31;;;;;;;7.40;2.60;;;;;;;5.52;57.24;97091.78;5088698;28;19983;-78
2021/03/14 02:51:56;;;;;;;4.55;2.33;;;;;;;5.51;57.18;97084.72;5088566;28;20065;-78
2021/03/14 02:54:23;;;;;;;5.35;2.38;;;;;;;5.51;57.69;97084.72;5086837;28;20428;-78
2021/03/14 02:56:50;;;;;;;4.15;1.92;;;;;;;5.51;57.72;97101.03;5088665;28;20028;-78
2021/03/14 02:59:21;;;;;;;4.90;2.10;;;;;;;5.49;57.93;97093.19;5089843;28;20051;-78
2021/03/14 03:01:48;;;;;;;5.25;2.10;;;;;;;5.50;57.66;97094.03;5083936;28;20024;-78
2021/03/14 03:04:23;;;;;;;4.05;1.70;;;;;;;5.49;57.49;97097.84;5077039;28;20023;-77
2021/03/14 03:06:50;;;;;;;4.63;2.08;;;;;;;5.48;58.02;97097.03;5083182;28;20043;-78
2021/03/14 03:09:17;;;;;;;4.30;2.10;;;;;;;5.48;57.61;97101.66;5088934;28;20043;-78
2021/03/14 03:11:44;;;;;;;4.43;1.95;;;;;;;5.47;58.30;97092.69;5087857;28;20039;-78
2021/03/14 03:14:15;;;;;;;4.20;2.17;;;;;;;5.47;57.89;97100.06;5082851;28;20429;-78
2021/03/14 03:16:42;;;;;;;5.55;3.22;;;;;;;5.47;57.71;97106.28;5086894;28;20032;-77
2021/03/14 03:19:11;;;;;;;5.05;3.22;;;;;;;5.46;58.20;97101.16;5087788;28;20097;-78
2021/03/14 03:21:38;;;;;;;9.65;4.18;;;;;;;5.44;58.36;97095.19;5086846;28;20651;-78
2021/03/14 03:24:05;;;;;;;11.50;3.30;;;;;;;5.42;57.68;97089.25;5080399;28;20621;-78
2021/03/14 03:26:30;;;;;;;5.07;1.90;;;;;;;5.39;58.23;97090.63;5060217;28;20520;-78
2021/03/14 03:28:56;;;;;;;4.65;2.10;;;;;;;5.39;58.02;97084.41;5092985;28;20043;-78
2021/03/14 03:31:21;;;;;;;4.75;2.00;;;;;;;5.38;57.98;97071.91;5095793;28;20085;-78
2021/03/14 03:33:47;;;;;;;3.67;2.08;;;;;;;5.37;58.47;97068.38;5090652;28;20078;-79
2021/03/14 03:36:12;;;;;;;3.83;1.60;;;;;;;5.39;58.03;97073.53;5088020;28;20030;-78
2021/03/14 03:38:38;;;;;;;4.35;1.95;;;;;;;5.39;58.46;97078.97;5070171;28;20465;-78
2021/03/14 03:41:03;;;;;;;3.75;1.52;;;;;;;5.38;58.59;97082.78;5083745;28;20032;-79
2021/03/14 03:43:35;;;;;;;4.20;1.60;;;;;;;5.35;59.08;97089.59;5081777;28;20142;-79
2021/03/14 03:46:04;;;;;;;7.22;2.70;;;;;;;5.35;58.55;97095.03;5078594;28;20022;-79
2021/03/14 03:48:36;;;;;;;3.60;1.65;;;;;;;5.35;58.49;97090.44;5082761;28;20107;-78
2021/03/14 03:51:04;;;;;;;4.97;1.80;;;;;;;5.33;58.92;97089.91;5082288;28;20032;-79
2021/03/14 03:53:32;;;;;;;4.25;2.33;;;;;;;5.31;58.26;97094.84;5089870;28;20110;-79
2021/03/14 03:55:59;;;;;;;3.47;1.88;;;;;;;5.31;58.99;97091.28;5086379;28;20038;-79
2021/03/14 03:58:25;;;;;;;2.88;1.27;;;;;;;5.32;59.38;97090.19;5085363;28;20032;-79
2021/03/14 04:00:53;;;;;;;4.30;2.08;;;;;;;5.30;58.74;97090.50;5086501;28;20785;-79
2021/03/14 04:03:21;;;;;;;3.50;1.52;;;;;;;5.29;59.56;97091.59;5086502;28;20515;-79
2021/03/14 04:05:48;;;;;;;2.38;1.30;;;;;;;5.28;59.83;97090.00;5079466;28;20571;-79
2021/03/14 04:08:14;;;;;;;4.55;2.80;;;;;;;5.28;58.93;97084.56;5077430;28;20040;-79
2021/03/14 04:10:40;;;;;;;4.20;1.77;;;;;;;5.28;58.95;97090.00;5083007;28;20377;-79
2021/03/14 04:13:07;;;;;;;4.70;2.20;;;;;;;5.27;59.67;97091.09;5088184;28;20020;-78
2021/03/14 04:15:33;;;;;;;4.05;1.92;;;;;;;5.27;59.25;97088.38;5086056;28;20484;-78
2021/03/14 04:18:04;;;;;;;6.88;2.53;;;;;;;5.28;59.66;97081.03;5087050;28;20031;-79
2021/03/14 04:20:33;;;;;;;4.95;1.95;;;;;;;5.29;59.53;97074.50;5086571;28;20056;-78
2021/03/14 04:23:03;;;;;;;3.30;1.75;;;;;;;5.29;59.07;97078.00;5085590;28;20062;-79
2021/03/14 04:25:30;;;;;;;3.58;1.85;;;;;;;5.29;58.89;97071.78;5080493;28;20054;-78
2021/03/14 04:27:58;;;;;;;4.68;1.77;;;;;;;5.31;59.47;97074.97;5077273;28;20139;-79
2021/03/14 04:30:26;;;;;;;2.97;1.70;;;;;;;5.33;59.24;97072.78;5081497;28;20040;-79
2021/03/14 04:32:53;;;;;;;5.18;2.00;;;;;;;5.33;59.19;97079.03;5087277;28;20031;-79
2021/03/14 04:35:19;;;;;;;4.38;1.92;;;;;;;5.34;58.96;97077.94;5084599;28;20535;-78
2021/03/14 04:37:45;;;;;;;3.10;1.65;;;;;;;5.35;59.02;97073.28;5085655;28;20107;-79
2021/03/14 04:40:13;;;;;;;4.88;2.22;;;;;;;5.33;58.85;97080.94;5085680;28;20210;-78
2021/03/14 04:42:42;;;;;;;2.95;1.70;;;;;;;5.31;59.54;97089.41;5086683;28;20115;-78
2021/03/14 04:45:10;;;;;;;3.78;1.95;;;;;;;5.31;58.90;97092.13;5080871;28;20032;-77
2021/03/14 04:47:35;;;;;;;3.00;2.30;;;;;;;5.31;59.43;97086.69;5076047;28;20024;-78
2021/03/14 04:50:03;;;;;;;2.78;1.75;;;;;;;5.30;60.05;97084.28;5076030;28;20503;-78
2021/03/14 04:52:29;;;;;;;4.45;1.77;;;;;;;5.29;59.33;97088.88;5084402;28;20031;-78
2021/03/14 04:54:55;;;;;;;4.00;1.90;;;;;;;5.30;60.06;97089.72;5086882;28;20031;-79
2021/03/14 04:57:21;;;;;;;4.97;3.03;;;;;;;5.29;59.64;97086.16;5069266;28;20980;-79
2021/03/14 04:59:49;;;;;;;2.83;1.60;;;;;;;5.27;60.34;97082.94;5087470;28;20119;-79
2021/03/14 05:02:14;;;;;;;4.45;1.88;;;;;;;5.29;59.70;97077.22;5084957;28;20024;-79
2021/03/14 05:04:42;;;;;;;5.15;1.85;;;;;;;5.26;60.27;97070.44;5085296;28;20410;-79
2021/03/14 05:07:11;;;;;;;4.03;1.70;;;;;;;5.26;60.71;97072.38;5082309;28;20139;-79
2021/03/14 05:09:37;;;;;;;4.82;2.25;;;;;;;5.23;59.86;97062.88;5076428;28;20036;-78
2021/03/14 05:12:03;;;;;;;5.65;3.08;;;;;;;5.21;60.08;97056.94;5077791;28;20040;-79
2021/03/14 05:14:29;;;;;;;5.47;2.45;;;;;;;5.21;60.06;97057.75;5088178;28;20020;-77
2021/03/14 05:16:55;;;;;;;7.03;3.15;;;;;;;5.19;60.61;97051.81;5085695;28;20036;-78
2021/03/14 05:19:21;;;;;;;6.53;2.60;;;;;;;5.19;60.96;97054.53;5085360;28;20031;-76
2021/03/14 05:21:48;;;;;;;6.20;2.25;;;;;;;5.19;60.10;97049.09;5086083;28;20069;-78
2021/03/14 05:24:14;;;;;;;5.22;2.60;;;;;;;5.19;60.75;97051.81;5085119;28;20027;-78
2021/03/14 05:26:43;;;;;;;6.88;2.75;;;;;;;5.18;61.08;97050.19;5081023;28;20484;-78
2021/03/14 05:29:11;;;;;;;6.70;3.75;;;;;;;5.20;60.61;97055.31;5073096;28;20660;-78
2021/03/14 05:31:37;;;;;;;4.78;2.65;;;;;;;5.18;61.06;97054.81;5071697;28;20016;-78
2021/03/14 05:34:14;;;;;;;43.97;12.95;;;;;;;5.18;60.74;97052.09;5081509;28;20460;-78
2021/03/14 05:36:40;;;;;;;75.82;29.52;;;;;;;5.20;60.79;97053.41;5071181;28;20085;-79
2021/03/14 05:39:06;;;;;;;15.30;8.07;;;;;;;5.23;60.63;97052.00;5084117;28;20433;-79
2021/03/14 05:41:33;;;;;;;8.48;4.30;;;;;;;5.24;60.04;97050.91;5110805;28;20031;-79
2021/03/14 05:44:00;;;;;;;17.95;11.55;;;;;;;5.26;60.01;97048.69;5112192;28;20111;-78
2021/03/14 05:46:26;;;;;;;9.40;6.07;;;;;;;5.27;60.15;97044.88;5112696;28;20028;-79
2021/03/14 05:48:52;;;;;;;5.00;2.35;;;;;;;5.29;60.32;97036.44;5112591;28;20023;-78
2021/03/14 05:51:32;;;;;;;5.03;2.70;;;;;;;5.30;59.95;97041.56;5110396;28;20031;-79
2021/03/14 05:53:59;;;;;;;5.88;2.65;;;;;;;5.33;60.30;97056.47;5111942;28;20032;-79
2021/03/14 05:56:26;;;;;;;5.15;2.67;;;;;;;5.31;60.57;97059.50;5112400;28;20162;-78
2021/03/14 05:58:52;;;;;;;7.10;3.80;;;;;;;5.30;59.99;97066.03;5108635;28;20111;-78
2021/03/14 06:01:20;;;;;;;9.20;4.93;;;;;;;5.29;60.47;97083.44;5093284;28;20036;-78
2021/03/14 06:03:45;;;;;;;7.20;4.63;;;;;;;5.28;60.16;97095.44;5112615;28;20032;-78
2021/03/14 06:06:14;;;;;;;10.05;6.78;;;;;;;5.27;60.81;97080.22;5112278;28;20043;-78
2021/03/14 06:08:40;;;;;;;11.75;6.00;;;;;;;5.30;60.72;97095.94;5114202;28;20593;-78
2021/03/14 06:11:06;;;;;;;11.27;7.32;;;;;;;5.33;60.31;97094.53;5116208;28;20050;-78
2021/03/14 06:13:35;;;;;;;21.25;10.32;;;;;;;5.33;60.48;97103.50;5098032;28;20032;-77
2021/03/14 06:16:01;;;;;;;34.63;13.55;;;;;;;5.35;60.29;97085.00;5084292;28;20027;-78
2021/03/14 06:18:27;;;;;;;40.90;15.30;;;;;;;5.36;60.44;97083.88;5116340;28;20023;-79
2021/03/14 06:20:53;;;;;;;27.27;9.95;;;;;;;5.39;60.16;97081.69;5114272;28;20172;-79
2021/03/14 06:23:20;;;;;;;31.58;11.73;;;;;;;5.42;59.64;97072.94;5115832;28;20560;-78
2021/03/14 06:25:49;;;;;;;44.80;14.63;;;;;;;5.44;60.46;97076.16;5115821;28;20020;-78
2021/03/14 06:28:15;;;;;;;30.75;9.73;;;;;;;5.46;59.87;97082.91;5115857;28;20032;-79
2021/03/14 06:30:42;;;;;;;67.82;17.35;;;;;;;5.50;60.07;97091.31;5114570;28;20452;-79
2021/03/14 06:33:18;;;;;;;81.93;19.30;;;;;;;5.52;59.85;97089.06;5097255;28;20023;-79
2021/03/14 06:35:47;;;;;;;56.50;13.88;;;;;;;5.56;59.81;97098.25;5115858;28;20030;-79
2021/03/14 06:38:34;;;;;;;69.50;18.88;;;;;;;5.61;59.49;97098.16;5115578;28;20032;-78
2021/03/14 06:40:59;;;;;;;28.83;8.35;;;;;;;5.66;59.72;97105.47;5097241;28;20032;-78
2021/03/14 06:43:29;;;;;;;58.78;17.98;;;;;;;5.72;60.27;97100.72;5097627;28;20448;-79
2021/03/14 06:45:55;;;;;;;60.17;18.02;;;;;;;5.75;59.61;97102.84;5115850;28;20051;-79
2021/03/14 06:48:25;;;;;;;49.72;14.63;;;;;;;5.79;59.61;97101.16;5115873;28;20476;-79
2021/03/14 06:50:50;;;;;;;16.80;5.53;;;;;;;5.84;60.29;97098.34;5104533;28;20096;-79
2021/03/14 06:53:18;;;;;;;48.58;15.48;;;;;;;5.89;59.92;97116.50;5115791;28;20023;-79
2021/03/14 06:55:45;;;;;;;35.20;12.13;;;;;;;5.95;59.63;97116.09;5115590;28;20476;-79
2021/03/14 06:58:27;;;;;;;29.70;9.05;;;;;;;6.03;60.10;97130.97;5114793;28;20149;-79
2021/03/14 07:01:12;;;;;;;52.17;15.93;;;;;;;6.12;59.17;97139.25;5111638;28;20024;-79
2021/03/14 07:03:47;;;;;;;27.88;9.75;;;;;;;6.19;59.27;97141.56;5112205;28;20475;-79
2021/03/14 07:06:26;;;;;;;19.45;6.10;;;;;;;6.25;59.38;97154.00;5112875;28;20063;-78
2021/03/14 07:09:09;;;;;;;30.98;9.05;;;;;;;6.30;58.62;97153.91;5113107;28;20484;-78
2021/03/14 07:11:35;;;;;;;28.30;9.27;;;;;;;6.36;58.86;97154.59;5097606;28;20082;-79
2021/03/14 07:14:03;;;;;;;51.58;16.08;;;;;;;6.38;58.56;97145.03;5114664;28;20020;-78
2021/03/14 07:16:48;;;;;;;41.63;12.77;;;;;;;6.42;58.51;97139.78;5112719;28;20040;-78
2021/03/14 07:19:16;;;;;;;24.85;9.35;;;;;;;6.45;58.19;97141.91;5112703;28;20030;-78
2021/03/14 07:21:42;;;;;;;46.20;15.85;;;;;;;6.49;58.51;97150.31;5113413;28;20106;-79
2021/03/14 07:24:12;;;;;;;38.88;13.95;;;;;;;6.51;58.05;97151.59;5095793;28;20100;-79
2021/03/14 07:26:42;;;;;;;9.70;4.23;;;;;;;6.56;57.87;97145.25;5114721;28;20058;-79
2021/03/14 07:29:08;;;;;;;;;;;;;;;6.60;57.75;97138.09;5115322;28;20281;-79
2021/03/14 07:31:34;;;;;;;15.43;5.53;;;;;;;6.64;57.81;97146.47;5114669;28;20427;-78
2021/03/14 07:34:01;;;;;;;25.23;9.23;;;;;;;6.65;57.15;97148.88;5114061;28;20050;-79
2021/03/14 07:36:26;;;;;;;13.80;4.85;;;;;;;6.67;56.77;97163.00;5096122;28;20794;-79
2021/03/14 07:38:52;;;;;;;8.32;3.55;;;;;;;6.68;57.30;97170.06;5113378;28;20103;-79
2021/03/14 07:41:18;;;;;;;10.77;3.85;;;;;;;6.74;57.63;97175.44;5114895;28;20441;-79
2021/03/14 07:43:43;;;;;;;20.02;8.68;;;;;;;6.78;57.15;97182.69;5096442;28;20024;-79
2021/03/14 07:46:09;;;;;;;32.25;11.30;;;;;;;6.87;56.70;97180.06;5114342;28;20080;-79
2021/03/14 07:48:40;;;;;;;34.03;11.57;;;;;;;6.94;57.06;97190.56;5112960;28;20024;-79
2021/03/14 07:51:07;;;;;;;27.38;9.70;;;;;;;6.99;56.55;97191.25;5114847;28;20043;-79
2021/03/14 07:53:33;;;;;;;15.68;5.00;;;;;;;7.04;56.58;97203.16;5114333;28;20024;-79
2021/03/14 07:56:00;;;;;;;33.67;11.98;;;;;;;7.10;56.77;97200.06;5114340;28;20438;-79
2021/03/14 07:58:26;;;;;;;11.50;4.30;;;;;;;7.15;55.96;97202.66;5096255;28;20426;-78
2021/03/14 08:00:51;;;;;;;11.90;4.80;;;;;;;7.17;55.49;97213.25;5108631;28;20031;-79
2021/03/14 08:03:17;;;;;;;16.38;6.55;;;;;;;7.17;55.59;97204.25;5104738;28;20035;-78
2021/03/14 08:05:51;;;;;;;15.05;6.18;;;;;;;7.14;54.98;97224.78;5112392;28;20036;-78
2021/03/14 08:08:25;;;;;;;15.10;6.13;;;;;;;7.14;55.65;97230.22;5095584;28;20052;-79
2021/03/14 08:10:52;;;;;;;8.55;3.65;;;;;;;7.09;54.66;97243.97;5111142;28;20032;-78
2021/03/14 08:13:29;;;;;;;6.72;3.00;;;;;;;7.04;54.79;97246.78;5113576;28;20037;-79
2021/03/14 08:16:06;;;;;;;18.50;7.05;;;;;;;7.00;54.78;97252.84;5114190;28;20042;-80
2021/03/14 08:18:46;;;;;;;12.90;5.30;;;;;;;6.99;54.96;97240.31;5113853;28;20031;-79
2021/03/14 08:21:23;;;;;;;13.27;6.10;;;;;;;6.99;54.88;97239.53;5113475;28;20027;-79
2021/03/14 08:23:56;;;;;;;13.50;4.88;;;;;;;6.99;55.05;97239.53;5094017;28;20028;-79
2021/03/14 08:26:22;;;;;;;11.70;4.22;;;;;;;6.99;55.05;97250.44;5099538;28;20020;-79
2021/03/14 08:28:54;;;;;;;10.13;4.80;;;;;;;6.99;55.03;97253.16;5114017;28;20042;-79
2021/03/14 08:31:41;;;;;;;15.40;6.75;;;;;;;7.01;54.94;97256.41;5103653;28;20038;-79
2021/03/14 08:34:09;;;;;;;8.48;4.10;;;;;;;7.02;54.59;97258.00;5113500;28;20038;-79
2021/03/14 08:36:42;;;;;;;9.35;4.03;;;;;;;7.02;54.85;97262.63;5113281;28;20080;-80
2021/03/14 08:39:19;;;;;;;10.05;5.45;;;;;;;7.04;54.64;97257.69;5113025;27;20030;-79
2021/03/14 08:41:57;;;;;;;13.70;6.00;;;;;;;7.06;54.34;97258.19;5121122;27;20027;-78
2021/03/14 08:44:40;;;;;;;16.52;8.15;;;;;;;7.15;54.82;97250.94;5111311;28;20024;-78
2021/03/14 08:47:08;;;;;;;14.68;6.65;;;;;;;7.24;54.59;97267.38;5109481;28;20379;-77
2021/03/14 08:49:36;;;;;;;12.70;5.47;;;;;;;7.27;54.87;97251.25;5110373;28;20387;-76
2021/03/14 08:52:03;;;;;;;12.00;5.70;;;;;;;7.29;54.59;97257.19;5111334;28;20171;-77
2021/03/14 08:54:40;;;;;;;8.00;3.65;;;;;;;7.28;54.56;97265.66;5107951;28;20384;-77
2021/03/14 08:57:10;;;;;;;11.07;4.68;;;;;;;7.23;54.23;97271.22;5111714;28;20057;-76
2021/03/14 08:59:44;;;;;;;9.32;3.72;;;;;;;7.18;53.73;97257.69;5111784;28;20031;-76
2021/03/14 09:02:10;;;;;;;6.90;3.17;;;;;;;7.15;54.47;97250.94;5108819;28;20028;-75
2021/03/14 09:04:35;;;;;;;12.07;5.07;;;;;;;7.19;54.16;97259.31;5110796;28;20038;-76
2021/03/14 09:07:11;;;;;;;11.10;5.50;;;;;;;7.23;54.36;97258.41;5107292;28;20170;-76
2021/03/14 09:09:38;;;;;;;8.40;4.72;;;;;;;7.25;53.90;97258.91;5111346;28;20047;-76
2021/03/14 09:12:06;;;;;;;11.07;5.63;;;;;;;7.28;53.71;97257.50;5111093;28;20031;-76
2021/03/14 09:14:33;;;;;;;15.32;7.20;;;;;;;7.31;53.71;97251.44;5108034;28;20031;-76
2021/03/14 09:17:02;;;;;;;20.65;10.95;;;;;;;7.37;53.79;97243.94;5110857;28;20476;-77
2021/03/14 09:19:32;;;;;;;11.00;5.53;;;;;;;7.47;53.38;97251.91;5111402;28;20028;-75
2021/03/14 09:22:03;;;;;;;13.13;6.20;;;;;;;7.53;53.75;97249.91;5110199;28;20055;-76
2021/03/14 09:24:35;;;;;;;17.90;6.90;;;;;;;7.64;53.54;97245.81;5110657;28;20128;-77
2021/03/14 09:27:05;;;;;;;16.60;9.07;;;;;;;7.67;52.73;97245.19;5111241;28;20364;-77
2021/03/14 09:29:39;;;;;;;12.73;7.30;;;;;;;7.68;52.69;97248.75;5110592;28;20038;-77
2021/03/14 09:32:15;;;;;;;7.28;4.15;;;;;;;7.69;52.45;97253.09;5106955;28;20043;-77
2021/03/14 09:34:41;;;;;;;10.95;6.28;;;;;;;7.69;52.78;97267.53;5087924;28;20018;-76
2021/03/14 09:37:07;;;;;;;9.02;3.70;;;;;;;7.70;52.10;97266.41;5109514;28;20020;-77
2021/03/14 09:39:32;;;;;;;8.00;4.00;;;;;;;7.70;52.01;97258.22;5107356;28;20023;-78
2021/03/14 09:41:58;;;;;;;9.40;4.05;;;;;;;7.75;51.96;97260.03;5090087;28;20024;-78
2021/03/14 09:44:23;;;;;;;13.55;5.65;;;;;;;7.81;51.96;97261.53;5106193;28;20015;-78
2021/03/14 09:46:56;;;;;;;11.48;4.80;;;;;;;7.92;51.08;97280.41;5112722;28;20048;-77
2021/03/14 09:49:22;;;;;;;10.43;5.13;;;;;;;8.08;51.53;97286.34;5110369;28;20058;-77
2021/03/14 09:51:56;;;;;;;10.43;4.93;;;;;;;8.16;50.88;97294.59;5112897;28;20460;-77
2021/03/14 09:54:25;;;;;;;13.13;6.15;;;;;;;8.27;50.85;97292.44;5112960;28;20062;-78
2021/03/14 09:56:55;;;;;;;9.57;4.18;;;;;;;8.34;50.58;97303.75;5113084;28;20024;-77
2021/03/14 09:59:25;;;;;;;13.25;4.95;;;;;;;8.30;49.96;97313.69;5111819;28;20534;-77
2021/03/14 10:01:52;;;;;;;11.75;4.57;;;;;;;8.26;49.82;97304.50;5112328;28;20181;-77
2021/03/14 10:04:18;;;;;;;9.77;5.03;;;;;;;8.20;49.59;97306.50;5111572;28;20459;-78
2021/03/14 10:06:45;;;;;;;9.35;5.03;;;;;;;8.23;50.11;97312.47;5112674;28;20118;-79
2021/03/14 10:09:25;;;;;;;12.63;5.05;;;;;;;8.20;50.41;97309.25;5112087;28;20047;-77
2021/03/14 10:11:54;;;;;;;9.97;4.87;;;;;;;8.28;50.09;97304.16;5107477;28;20122;-79
2021/03/14 10:14:21;;;;;;;8.02;3.90;;;;;;;8.45;50.09;97309.78;5110519;28;20468;-79
2021/03/14 10:16:50;;;;;;;8.52;3.53;;;;;;;8.59;49.44;97298.81;5093995;28;20364;-79
2021/03/14 10:19:16;;;;;;;15.82;7.47;;;;;;;8.74;49.10;97291.34;5109224;28;20038;-80
2021/03/14 10:21:43;;;;;;;15.68;8.18;;;;;;;8.88;48.91;97294.00;5112248;28;20052;-78
2021/03/14 10:24:18;;;;;;;8.05;4.32;;;;;;;8.98;48.15;97293.69;5111625;28;20487;-77
2021/03/14 10:26:50;;;;;;;8.30;4.10;;;;;;;9.08;47.18;97298.91;5112554;28;20027;-75
2021/03/14 10:29:17;;;;;;;11.40;5.60;;;;;;;9.00;47.02;97294.19;5111623;28;20063;-76
2021/03/14 10:31:43;;;;;;;7.85;4.63;;;;;;;8.90;47.06;97298.00;5111908;28;20051;-77
2021/03/14 10:34:08;;;;;;;8.73;4.38;;;;;;;8.83;46.85;97289.44;5112112;28;20472;-77
2021/03/14 10:36:35;;;;;;;8.35;4.22;;;;;;;8.88;47.34;97305.72;5111568;27;20114;-78
2021/03/14 10:39:05;;;;;;;10.32;6.55;;;;;;;8.87;46.05;97304.09;5113010;27;20030;-77
2021/03/14 10:41:42;;;;;;;7.63;4.07;;;;;;;8.89;46.32;97304.59;5108672;28;20061;-77
2021/03/14 10:44:09;;;;;;;8.43;4.60;;;;;;;8.99;46.25;97297.25;5088043;28;20181;-77
2021/03/14 10:46:45;;;;;;;10.40;4.75;;;;;;;9.13;47.17;97311.66;5088998;28;20524;-77
2021/03/14 10:49:13;;;;;;;9.43;4.68;;;;;;;9.32;46.79;97297.72;5106736;28;20027;-77
2021/03/14 10:51:40;;;;;;;5.90;3.10;;;;;;;9.47;45.18;97309.34;5106544;28;20367;-76
2021/03/14 10:54:11;;;;;;;6.55;3.78;;;;;;;9.53;44.59;97306.16;5085036;28;20032;-76
2021/03/14 10:56:39;;;;;;;5.10;3.00;;;;;;;9.66;43.89;97309.06;5100598;28;20528;-77
2021/03/14 10:59:05;;;;;;;3.90;2.40;;;;;;;9.69;43.49;97305.69;5110224;27;20020;-75
2021/03/14 11:01:36;;;;;;;333.27;134.95;;;;;;;9.65;43.17;97301.97;5090220;28;20023;-75
2021/03/14 11:04:04;;;;;;;82.50;35.13;;;;;;;9.67;43.22;97305.22;5104068;28;20478;-75
2021/03/14 11:06:29;;;;;;;139.95;58.83;;;;;;;9.63;42.16;97309.69;5090838;28;20395;-75
2021/03/14 11:08:56;;;;;;;8.30;3.83;;;;;;;9.53;42.80;97321.75;5111347;27;20052;-76
2021/03/14 11:11:26;;;;;;;4.85;2.67;;;;;;;9.46;42.90;97319.50;5093089;27;20038;-76
2021/03/14 11:13:54;;;;;;;8.20;4.45;;;;;;;9.48;43.14;97309.03;5108879;28;20814;-78
2021/03/14 11:16:24;;;;;;;7.13;3.40;;;;;;;9.55;42.27;97314.03;5110555;28;20061;-76
2021/03/14 11:19:04;;;;;;;6.25;3.05;;;;;;;9.62;41.45;97319.84;5110575;28;20027;-78
2021/03/14 11:21:29;;;;;;;7.70;2.97;;;;;;;9.74;41.10;97321.97;5105789;28;20423;-76
2021/03/14 11:23:55;;;;;;;5.60;3.20;;;;;;;9.85;39.51;97314.25;5107389;28;20040;-76
2021/03/14 11:26:21;;;;;;;15.43;6.93;;;;;;;9.95;39.40;97307.69;5099340;28;20376;-75
2021/03/14 11:28:47;;;;;;;4.60;2.40;;;;;;;10.01;39.12;97309.13;5080000;28;20031;-77
2021/03/14 11:31:12;;;;;;;10.38;5.25;;;;;;;10.15;39.45;97310.91;5078757;28;20024;-75
2021/03/14 11:33:39;;;;;;;9.00;4.85;;;;;;;10.23;38.72;97305.44;5085399;28;20547;-76
2021/03/14 11:36:04;;;;;;;5.53;2.97;;;;;;;10.17;38.15;97325.09;5084117;28;20035;-76
2021/03/14 11:38:30;;;;;;;12.20;3.72;;;;;;;10.06;38.78;97319.94;5064241;28;20032;-77
2021/03/14 11:40:56;;;;;;;11.48;3.30;;;;;;;9.80;38.06;97325.38;5086351;28;20063;-77
2021/03/14 11:43:25;;;;;;;16.70;6.45;;;;;;;9.62;38.47;97336.28;5085377;28;20123;-77